Tice, Florida
Current Conditions -  °F | °C
As of 12:53 PM on Monday 24 Nov 2014 (Local Time) from KFMY Reporting Station
Clear Clear  
Wind Chill: 84°   Ceiling: Unl
Heat Index: 90°   Visibility: 10mi
Dew Point: 72°   Wind: 14mph
Humidity: 67%   Direction: 190°S
Pressure: 29.94"   Gusts: NA
Location:  26.6679°N, 81.7525°W
Report Text: KFMY 241753Z 19012KT 10SM CLR 29/22 A2994 RMK AO2 SLP141 T02890222 10289 20250 58018
Loading
Personal Weather Stations






























Interactive Weather Map New forecast layout! Learn more

10-Day Weather Forecast

Advertisements
Track Severe Weather on mobile